createdAt,value
2023-02-19T00:01:48.901Z,12.43
2023-02-19T00:04:19.169Z,12.60
2023-02-19T00:06:48.352Z,12.59
2023-02-19T00:09:17.459Z,11.78
2023-02-19T00:11:45.035Z,10.70
2023-02-19T00:14:19.714Z,10.75
2023-02-19T00:16:47.349Z,11.42
2023-02-19T00:19:17.805Z,11.90
2023-02-19T00:21:45.291Z,12.21
2023-02-19T00:24:14.045Z,12.45
2023-02-19T00:26:43.228Z,12.55
2023-02-19T00:29:15.446Z,12.03
2023-02-19T00:31:43.142Z,10.92
2023-02-19T00:34:12.384Z,10.33
2023-02-19T00:36:41.593Z,10.91
2023-02-19T00:39:09.665Z,11.41
2023-02-19T00:41:36.854Z,11.59
2023-02-19T00:44:08.305Z,11.74
2023-02-19T00:46:42.493Z,11.99
2023-02-19T00:49:17.334Z,12.26
2023-02-19T00:51:45.070Z,12.42
2023-02-19T00:54:13.397Z,12.48
2023-02-19T00:56:40.893Z,11.97
2023-02-19T00:59:08.357Z,10.88
2023-02-19T01:01:35.717Z,10.24
2023-02-19T01:04:04.831Z,10.87
2023-02-19T01:06:35.128Z,11.46
2023-02-19T01:09:03.110Z,11.84
2023-02-19T01:11:30.450Z,11.94
2023-02-19T01:13:59.534Z,12.16
2023-02-19T01:16:28.064Z,12.23
2023-02-19T01:18:56.873Z,12.23
2023-02-19T01:21:26.423Z,12.37
2023-02-19T01:23:54.549Z,12.43
2023-02-19T01:26:27.767Z,11.59
2023-02-19T01:28:55.672Z,10.47
2023-02-19T01:31:25.369Z,9.85
2023-02-19T01:33:59.509Z,10.44
2023-02-19T01:36:27.285Z,10.84
2023-02-19T01:38:54.568Z,11.07
2023-02-19T01:41:26.050Z,11.33
2023-02-19T01:44:08.888Z,11.60
2023-02-19T01:46:38.163Z,11.79
2023-02-19T01:49:13.055Z,11.83
2023-02-19T01:51:45.646Z,11.85
2023-02-19T01:54:14.628Z,11.95
2023-02-19T01:56:44.649Z,11.98
2023-02-19T01:59:12.686Z,12.22
2023-02-19T02:04:28.123Z,10.88
2023-02-19T02:07:01.425Z,9.98
2023-02-19T02:09:49.754Z,10.37
2023-02-19T02:12:16.962Z,11.03
2023-02-19T02:14:48.736Z,11.56
2023-02-19T02:17:26.346Z,11.88
2023-02-19T02:20:03.245Z,12.09
2023-02-19T02:22:36.879Z,12.19
2023-02-19T02:25:22.456Z,12.08
2023-02-19T02:28:41.437Z,10.81
2023-02-19T02:31:20.273Z,9.96
2023-02-19T02:33:50.267Z,10.55
2023-02-19T02:36:25.150Z,11.07
2023-02-19T02:38:54.591Z,11.19
2023-02-19T02:41:22.130Z,11.33
2023-02-19T02:43:49.278Z,11.57
2023-02-19T02:46:23.173Z,11.58
2023-02-19T02:48:55.799Z,11.78
2023-02-19T02:51:32.772Z,11.98
2023-02-19T02:54:30.714Z,12.18
2023-02-19T02:57:00.285Z,12.47
2023-02-19T02:59:32.634Z,12.16
2023-02-19T03:02:14.838Z,11.07
2023-02-19T03:05:13.370Z,10.05
2023-02-19T03:08:01.251Z,10.41
2023-02-19T03:10:51.978Z,11.22
2023-02-19T03:13:53.028Z,11.60
2023-02-19T03:16:49.315Z,11.81
2023-02-19T03:19:20.009Z,11.91
2023-02-19T03:21:56.617Z,12.09
2023-02-19T03:24:48.961Z,12.18
2023-02-19T03:27:19.827Z,12.30
2023-02-19T03:29:50.247Z,12.46
2023-02-19T03:32:29.778Z,12.61
2023-02-19T03:35:12.084Z,12.43
2023-02-19T03:37:47.373Z,11.33
2023-02-19T03:40:15.715Z,10.33
2023-02-19T03:42:59.823Z,10.28
2023-02-19T03:45:38.332Z,11.23
2023-02-19T03:48:39.108Z,11.75
2023-02-19T03:51:25.398Z,12.05
2023-02-19T03:54:24.240Z,12.02
2023-02-19T03:57:00.744Z,12.30
2023-02-19T03:59:40.697Z,12.45
2023-02-19T04:02:17.687Z,12.57
2023-02-19T04:05:01.775Z,12.69
2023-02-19T04:07:31.775Z,12.23
2023-02-19T04:09:59.517Z,11.05
2023-02-19T04:12:28.107Z,10.49
2023-02-19T04:15:07.086Z,11.06
2023-02-19T04:17:40.407Z,11.76
2023-02-19T04:20:10.714Z,12.24
2023-02-19T04:22:39.730Z,12.46
2023-02-19T04:25:08.242Z,12.64
2023-02-19T04:27:42.122Z,12.70
2023-02-19T04:30:12.417Z,12.04
2023-02-19T04:32:39.697Z,10.86
2023-02-19T04:35:07.639Z,10.89
2023-02-19T04:37:34.906Z,11.61
2023-02-19T04:40:02.084Z,11.90
2023-02-19T04:42:29.818Z,12.10
2023-02-19T04:44:57.059Z,12.41
2023-02-19T04:47:24.852Z,12.44
2023-02-19T04:49:52.244Z,12.43
2023-02-19T04:52:19.351Z,12.66
2023-02-19T04:54:46.537Z,12.78
2023-02-19T04:57:14.313Z,12.59
2023-02-19T04:59:41.528Z,11.44
2023-02-19T05:02:08.748Z,10.47
2023-02-19T05:04:36.090Z,10.78
2023-02-19T05:07:03.343Z,11.19
2023-02-19T05:09:30.568Z,11.50
2023-02-19T05:11:58.253Z,11.80
2023-02-19T05:14:25.558Z,12.03
2023-02-19T05:16:52.826Z,12.09
2023-02-19T05:19:20.628Z,12.29
2023-02-19T05:21:47.879Z,12.40
2023-02-19T05:24:15.109Z,12.56
2023-02-19T05:26:45.362Z,12.70
2023-02-19T05:29:12.886Z,12.53
2023-02-19T05:31:40.221Z,11.43
2023-02-19T05:34:08.044Z,10.36
2023-02-19T05:36:35.128Z,9.82
2023-02-19T05:39:02.326Z,10.47
2023-02-19T05:41:30.861Z,11.23
2023-02-19T05:43:58.703Z,11.69
2023-02-19T05:46:30.104Z,12.03
2023-02-19T05:48:58.682Z,12.29
2023-02-19T05:51:27.672Z,12.46
2023-02-19T05:53:57.744Z,12.52
2023-02-19T05:56:39.006Z,12.63
2023-02-19T05:59:26.822Z,12.74
2023-02-19T06:01:54.939Z,12.20
2023-02-19T06:04:23.041Z,11.04
2023-02-19T06:06:50.691Z,10.14
2023-02-19T06:09:18.764Z,10.37
2023-02-19T06:11:46.220Z,11.12
2023-02-19T06:14:15.007Z,11.54
2023-02-19T06:16:42.864Z,11.80
2023-02-19T06:19:10.701Z,12.00
2023-02-19T06:21:38.176Z,12.24
2023-02-19T06:24:09.758Z,12.17
2023-02-19T06:26:37.874Z,12.22
2023-02-19T06:29:05.189Z,12.33
2023-02-19T06:31:32.876Z,12.54
2023-02-19T06:34:00.284Z,12.64
2023-02-19T06:36:27.488Z,12.47
2023-02-19T06:38:54.718Z,12.70
2023-02-19T06:41:22.666Z,12.74
2023-02-19T06:43:51.381Z,12.89
2023-02-19T06:46:20.407Z,12.81
2023-02-19T06:48:49.113Z,11.86
2023-02-19T06:51:24.759Z,10.81
2023-02-19T06:53:52.066Z,10.26
2023-02-19T06:56:32.009Z,10.82
2023-02-19T06:59:02.623Z,11.45
2023-02-19T07:01:31.909Z,11.88
2023-02-19T07:04:00.785Z,12.18
2023-02-19T07:06:29.458Z,12.19
2023-02-19T07:08:58.761Z,12.33
2023-02-19T07:11:27.554Z,12.60
2023-02-19T07:13:59.643Z,12.65
2023-02-19T07:16:29.141Z,12.75
2023-02-19T07:19:00.334Z,12.72
2023-02-19T07:21:30.836Z,12.87
2023-02-19T07:24:00.564Z,12.99
2023-02-19T07:26:27.962Z,13.15
2023-02-19T07:28:55.288Z,13.25
2023-02-19T07:31:24.701Z,13.23
2023-02-19T07:33:53.352Z,12.51
2023-02-19T07:36:22.793Z,11.41
2023-02-19T07:39:00.535Z,10.80
2023-02-19T07:41:28.387Z,11.44
2023-02-19T07:43:55.713Z,11.99
2023-02-19T07:46:25.212Z,12.39
2023-02-19T07:48:53.280Z,12.53
2023-02-19T07:51:22.589Z,12.73
2023-02-19T07:53:53.575Z,12.87
2023-02-19T07:56:21.488Z,12.92
2023-02-19T07:58:49.195Z,13.13
2023-02-19T08:01:42.651Z,13.23
2023-02-19T08:04:12.176Z,13.25
2023-02-19T08:06:40.289Z,13.37
2023-02-19T08:09:09.098Z,13.54
2023-02-19T08:11:56.069Z,13.62
2023-02-19T08:14:28.251Z,12.88
2023-02-19T08:16:58.251Z,11.73
2023-02-19T08:19:27.724Z,11.12
2023-02-19T08:22:04.081Z,11.68
2023-02-19T08:24:37.952Z,12.30
2023-02-19T08:27:10.459Z,12.70
2023-02-19T08:29:40.438Z,12.63
2023-02-19T08:32:09.961Z,12.73
2023-02-19T08:34:43.281Z,12.82
2023-02-19T08:37:12.420Z,12.97
2023-02-19T08:39:40.928Z,13.01
2023-02-19T08:42:08.425Z,12.87
2023-02-19T08:44:36.070Z,12.90
2023-02-19T08:47:06.031Z,13.01
2023-02-19T08:49:35.521Z,13.00
2023-02-19T08:52:07.150Z,13.02
2023-02-19T08:54:37.261Z,12.27
2023-02-19T08:57:06.754Z,11.14
2023-02-19T08:59:35.437Z,10.59
2023-02-19T09:02:03.716Z,11.32
2023-02-19T09:04:32.038Z,12.04
2023-02-19T09:07:00.217Z,12.52
2023-02-19T09:09:30.585Z,12.83
2023-02-19T09:12:01.311Z,13.06
2023-02-19T09:14:33.953Z,12.91
2023-02-19T09:17:04.113Z,11.93
2023-02-19T09:19:33.662Z,10.86
2023-02-19T09:22:03.314Z,10.66
2023-02-19T09:24:33.266Z,11.48
2023-02-19T09:27:07.805Z,12.16
2023-02-19T09:29:36.839Z,12.62
2023-02-19T09:32:05.942Z,12.93
2023-02-19T09:34:35.073Z,13.04
2023-02-19T09:37:04.312Z,12.18
2023-02-19T09:39:34.094Z,11.05
2023-02-19T09:42:22.103Z,11.22
2023-02-19T09:44:56.214Z,11.91
2023-02-19T09:47:29.329Z,12.29
2023-02-19T09:50:05.362Z,12.33
2023-02-19T09:52:57.456Z,11.31
2023-02-19T09:55:41.548Z,10.13
2023-02-19T09:58:35.945Z,9.27
2023-02-19T10:01:10.192Z,9.03
2023-02-19T10:03:50.908Z,9.96
2023-02-19T10:06:28.397Z,10.73
2023-02-19T10:09:19.215Z,11.26
2023-02-19T10:11:52.503Z,11.64
2023-02-19T10:14:45.474Z,11.74
2023-02-19T10:17:25.578Z,10.98
2023-02-19T10:19:56.007Z,9.70
2023-02-19T10:22:26.148Z,8.83
2023-02-19T10:24:57.816Z,9.07
2023-02-19T10:27:32.933Z,9.76
2023-02-19T10:30:04.437Z,10.27
2023-02-19T10:32:37.493Z,10.60
2023-02-19T10:35:14.299Z,10.70
2023-02-19T10:37:50.225Z,10.76
2023-02-19T10:40:23.360Z,10.63
2023-02-19T10:43:06.231Z,9.60
2023-02-19T10:45:51.143Z,8.62
2023-02-19T10:48:34.049Z,9.06
2023-02-19T10:51:08.282Z,9.65
2023-02-19T10:53:52.694Z,10.19
2023-02-19T10:56:32.706Z,10.72
2023-02-19T10:59:29.528Z,10.62
2023-02-19T11:02:17.542Z,9.40
2023-02-19T11:05:06.517Z,8.40
2023-02-19T11:07:37.114Z,7.99
2023-02-19T11:10:12.564Z,8.84
2023-02-19T11:12:43.597Z,9.70
2023-02-19T11:15:42.240Z,10.23
2023-02-19T11:18:14.651Z,10.49
2023-02-19T11:21:04.612Z,10.77
2023-02-19T11:23:49.752Z,10.46
2023-02-19T11:26:27.901Z,9.26
2023-02-19T11:29:06.230Z,8.28
2023-02-19T11:31:40.750Z,7.95
2023-02-19T11:34:30.879Z,8.84
2023-02-19T11:37:16.023Z,9.75
2023-02-19T11:39:49.338Z,10.25
2023-02-19T11:42:34.089Z,10.62
2023-02-19T11:45:40.797Z,10.80
2023-02-19T11:48:53.075Z,10.17
2023-02-19T11:51:49.331Z,8.75
2023-02-19T11:54:53.739Z,8.82
2023-02-19T11:57:45.699Z,9.49
2023-02-19T12:00:29.320Z,9.88
2023-02-19T12:03:26.331Z,9.99
2023-02-19T12:06:22.357Z,10.16
2023-02-19T12:09:28.194Z,9.70
2023-02-19T12:12:23.388Z,8.40
2023-02-19T12:15:25.071Z,7.69
2023-02-19T12:18:01.824Z,8.33
2023-02-19T12:20:51.014Z,9.02
2023-02-19T12:24:14.560Z,9.62
2023-02-19T12:27:05.449Z,9.98
2023-02-19T12:30:15.091Z,9.94
2023-02-19T12:33:09.277Z,8.58
2023-02-19T12:36:07.280Z,7.90
2023-02-19T12:38:52.173Z,8.57
2023-02-19T12:41:58.758Z,9.22
2023-02-19T12:44:54.602Z,9.64
2023-02-19T12:47:31.809Z,9.84
2023-02-19T12:50:21.898Z,10.06
2023-02-19T12:52:57.571Z,9.97
2023-02-19T12:58:31.006Z,7.88
2023-02-19T13:01:02.615Z,7.49
2023-02-19T13:03:41.022Z,8.31
2023-02-19T13:06:25.393Z,9.05
2023-02-19T13:09:09.068Z,9.52
2023-02-19T13:11:48.804Z,9.74
2023-02-19T13:14:26.646Z,9.95
2023-02-19T13:17:22.278Z,10.18
2023-02-19T13:19:55.811Z,9.49
2023-02-19T13:22:56.019Z,8.42
2023-02-19T13:25:34.486Z,8.04
2023-02-19T13:28:22.423Z,8.75
2023-02-19T13:31:13.621Z,9.24
2023-02-19T13:34:16.335Z,9.73
2023-02-19T13:36:49.031Z,10.28
2023-02-19T13:39:25.162Z,10.68
2023-02-19T13:42:06.430Z,10.56
2023-02-19T13:44:39.114Z,9.40
2023-02-19T13:47:36.771Z,8.32
2023-02-19T13:50:21.039Z,8.08
2023-02-19T13:52:55.497Z,9.07
2023-02-19T13:55:50.237Z,9.73
2023-02-19T13:58:41.777Z,10.09
2023-02-19T14:01:18.349Z,9.59
2023-02-19T14:04:10.734Z,8.28
2023-02-19T14:07:06.843Z,7.71
2023-02-19T14:09:43.986Z,8.51
2023-02-19T14:12:18.411Z,9.08
2023-02-19T14:14:55.423Z,9.29
2023-02-19T14:17:45.725Z,9.45
2023-02-19T14:20:39.596Z,8.42
2023-02-19T14:23:21.868Z,7.48
2023-02-19T14:26:00.855Z,8.13
2023-02-19T14:28:47.812Z,8.97
2023-02-19T14:31:35.476Z,9.32
2023-02-19T14:34:09.040Z,9.46
2023-02-19T14:36:51.952Z,8.72
2023-02-19T14:39:40.101Z,7.51
2023-02-19T14:42:26.348Z,7.42
2023-02-19T14:45:01.665Z,8.35
2023-02-19T14:47:37.301Z,8.95
2023-02-19T14:50:17.482Z,9.21
2023-02-19T14:52:51.618Z,8.20
2023-02-19T14:55:39.720Z,7.16
2023-02-19T14:58:26.006Z,7.72
2023-02-19T15:01:02.086Z,8.46
2023-02-19T15:03:33.832Z,8.90
2023-02-19T15:06:19.567Z,9.06
2023-02-19T15:08:52.277Z,8.05
2023-02-19T15:11:24.823Z,7.07
2023-02-19T15:14:04.939Z,6.75
2023-02-19T15:16:40.101Z,7.66
2023-02-19T15:19:12.425Z,8.40
2023-02-19T15:21:53.811Z,8.51
2023-02-19T15:24:24.033Z,8.55
2023-02-19T15:26:57.769Z,7.57
2023-02-19T15:29:33.308Z,6.62
2023-02-19T15:32:04.256Z,6.86
2023-02-19T15:34:37.294Z,7.79
2023-02-19T15:37:10.495Z,8.40
2023-02-19T15:39:48.666Z,8.60
2023-02-19T15:42:28.950Z,7.61
2023-02-19T15:45:05.899Z,6.53
2023-02-19T15:47:46.015Z,6.15
2023-02-19T15:50:21.648Z,7.09
2023-02-19T15:53:07.539Z,7.93
2023-02-19T15:55:59.347Z,8.50
2023-02-19T15:58:44.270Z,8.41
2023-02-19T16:01:28.581Z,7.34
2023-02-19T16:03:59.792Z,6.35
2023-02-19T16:06:32.508Z,6.33
2023-02-19T16:09:05.729Z,7.19
2023-02-19T16:11:41.174Z,7.72
2023-02-19T16:14:31.968Z,7.98
2023-02-19T16:17:26.129Z,8.19
2023-02-19T16:19:57.138Z,7.23
2023-02-19T16:22:31.938Z,6.30
2023-02-19T16:25:04.541Z,5.91
2023-02-19T16:27:38.377Z,6.76
2023-02-19T16:30:18.552Z,7.58
2023-02-19T16:32:48.646Z,8.12
2023-02-19T16:35:43.154Z,7.65
2023-02-19T16:38:21.353Z,6.53
2023-02-19T16:40:53.341Z,5.69
2023-02-19T16:43:45.539Z,5.12
2023-02-19T16:46:15.613Z,5.41
2023-02-19T16:48:45.016Z,6.39
2023-02-19T16:51:37.086Z,7.13
2023-02-19T16:54:07.785Z,7.85
2023-02-19T16:56:37.401Z,7.87
2023-02-19T16:59:08.852Z,6.84
2023-02-19T17:01:43.174Z,5.89
2023-02-19T17:04:18.618Z,6.25
2023-02-19T17:06:52.043Z,7.16
2023-02-19T17:09:21.909Z,7.69
2023-02-19T17:11:51.704Z,7.14
2023-02-19T17:14:25.912Z,6.15
2023-02-19T17:16:57.177Z,5.37
2023-02-19T17:19:27.094Z,4.95
2023-02-19T17:21:57.979Z,5.71
2023-02-19T17:24:29.667Z,6.72
2023-02-19T17:26:58.616Z,7.36
2023-02-19T17:29:35.799Z,7.61
2023-02-19T17:32:06.531Z,6.65
2023-02-19T17:34:35.612Z,5.71
2023-02-19T17:37:07.659Z,5.07
2023-02-19T17:39:43.549Z,5.68
2023-02-19T17:42:13.649Z,6.74
2023-02-19T17:44:50.877Z,7.42
2023-02-19T17:47:23.234Z,7.57
2023-02-19T17:49:52.874Z,6.44
2023-02-19T17:52:23.593Z,5.49
2023-02-19T17:54:57.501Z,5.70
2023-02-19T17:57:34.781Z,6.89
2023-02-19T18:00:07.365Z,7.63
2023-02-19T18:02:40.663Z,7.39
2023-02-19T18:15:50.592Z,6.48
2023-02-19T18:18:20.118Z,7.04
2023-02-19T18:20:50.494Z,7.10
2023-02-19T18:23:34.722Z,6.15
2023-02-19T18:26:08.159Z,5.12
2023-02-19T18:28:38.781Z,4.65
2023-02-19T18:31:11.893Z,5.47
2023-02-19T18:33:44.571Z,6.52
2023-02-19T18:36:22.333Z,7.06
2023-02-19T18:38:52.690Z,7.06
2023-02-19T18:41:32.775Z,6.00
2023-02-19T18:44:04.883Z,5.01
2023-02-19T18:46:39.406Z,4.55
2023-02-19T18:49:11.049Z,5.38
2023-02-19T18:51:41.390Z,6.29
2023-02-19T18:54:21.835Z,6.84
2023-02-19T18:56:51.527Z,7.20
2023-02-19T19:21:19.026Z,5.64
2023-02-19T19:23:49.541Z,4.75
2023-02-19T19:26:20.428Z,5.07
2023-02-19T19:28:50.447Z,5.96
2023-02-19T19:31:30.022Z,6.67
2023-02-19T19:34:00.506Z,7.18
2023-02-19T19:36:34.986Z,6.82
2023-02-19T19:39:05.214Z,5.75
2023-02-19T19:41:35.851Z,4.86
2023-02-19T19:44:15.631Z,4.32
2023-02-19T19:46:50.224Z,5.02
2023-02-19T19:49:24.777Z,5.97
2023-02-19T19:51:58.674Z,6.51
2023-02-19T19:54:35.287Z,6.78
2023-02-19T19:57:08.225Z,5.96
2023-02-19T19:59:42.886Z,4.84
2023-02-19T20:02:15.141Z,4.22
2023-02-19T20:04:45.263Z,4.96
2023-02-19T20:07:16.070Z,5.88
2023-02-19T20:09:59.107Z,6.28
2023-02-19T20:12:30.133Z,6.37
2023-02-19T20:15:04.225Z,5.43
2023-02-19T20:17:38.438Z,4.46
2023-02-19T20:20:10.393Z,4.07
2023-02-19T20:22:41.812Z,4.97
2023-02-19T20:25:14.702Z,5.76
2023-02-19T20:27:45.112Z,6.21
2023-02-19T20:30:17.289Z,6.68
2023-02-19T20:32:47.739Z,6.46
2023-02-19T20:35:19.260Z,5.40
2023-02-19T20:37:52.530Z,4.38
2023-02-19T20:40:22.090Z,3.94
2023-02-19T20:42:54.695Z,4.79
2023-02-19T20:45:25.336Z,5.69
2023-02-19T20:47:57.344Z,6.35
2023-02-19T20:50:27.349Z,6.73
2023-02-19T20:52:57.628Z,6.21
2023-02-19T20:55:27.374Z,5.04
2023-02-19T20:57:57.087Z,4.19
2023-02-19T21:00:26.941Z,3.57
2023-02-19T21:02:57.476Z,3.72
2023-02-19T21:05:27.941Z,4.83
2023-02-19T21:07:57.373Z,5.66
2023-02-19T21:10:26.746Z,6.22
2023-02-19T21:12:55.264Z,6.38
2023-02-19T21:15:23.984Z,5.60
2023-02-19T21:17:51.099Z,4.55
2023-02-19T21:20:18.320Z,4.24
2023-02-19T21:22:45.855Z,5.34
2023-02-19T21:25:13.692Z,5.98
2023-02-19T21:27:41.513Z,6.32
2023-02-19T21:30:09.930Z,5.69
2023-02-19T21:32:37.113Z,4.60
2023-02-19T21:35:04.668Z,3.93
2023-02-19T21:37:31.941Z,4.58
2023-02-19T21:40:00.744Z,5.55
2023-02-19T21:42:28.031Z,6.00
2023-02-19T21:44:59.031Z,5.53
2023-02-19T21:47:28.065Z,4.49
2023-02-19T21:49:55.184Z,3.95
2023-02-19T21:52:23.927Z,4.64
2023-02-19T21:54:51.000Z,5.45
2023-02-19T21:57:18.093Z,6.11
2023-02-19T21:59:45.306Z,6.56
2023-02-19T22:02:13.194Z,5.98
2023-02-19T22:04:40.119Z,4.89
2023-02-19T22:07:07.533Z,4.03
2023-02-19T22:09:34.865Z,3.73
2023-02-19T22:12:02.070Z,4.68
2023-02-19T22:14:29.768Z,5.49
2023-02-19T22:16:56.795Z,6.23
2023-02-19T22:19:23.890Z,6.46
2023-02-19T22:21:51.216Z,5.46
2023-02-19T22:24:21.288Z,4.46
2023-02-19T22:26:50.930Z,3.69
2023-02-19T22:29:19.273Z,3.46
2023-02-19T22:31:50.800Z,4.46
2023-02-19T22:34:18.134Z,5.49
2023-02-19T22:36:46.527Z,6.12
2023-02-19T22:39:20.188Z,6.28
2023-02-19T22:41:47.996Z,5.31
2023-02-19T22:44:15.852Z,4.26
2023-02-19T22:46:51.555Z,3.90
2023-02-19T22:49:19.822Z,4.83
2023-02-19T22:51:55.939Z,5.64
2023-02-19T22:54:30.121Z,6.17
2023-02-19T22:56:58.224Z,6.09
2023-02-19T22:59:25.730Z,4.91
2023-02-19T23:01:53.237Z,4.03
2023-02-19T23:04:22.280Z,4.03
2023-02-19T23:06:52.595Z,4.91
2023-02-19T23:09:27.506Z,5.64
2023-02-19T23:12:05.675Z,6.26
2023-02-19T23:14:33.373Z,6.26
2023-02-19T23:17:00.611Z,5.30
2023-02-19T23:19:28.775Z,4.38
2023-02-19T23:21:57.014Z,3.93
2023-02-19T23:24:25.018Z,4.74
2023-02-19T23:26:56.204Z,5.63
2023-02-19T23:29:27.455Z,6.33
2023-02-19T23:31:58.819Z,6.34
2023-02-19T23:34:26.166Z,5.31
2023-02-19T23:36:55.701Z,4.33
2023-02-19T23:39:23.121Z,3.64
2023-02-19T23:41:55.441Z,3.35
2023-02-19T23:44:26.348Z,4.26
2023-02-19T23:46:53.641Z,5.23
2023-02-19T23:49:21.296Z,5.80
2023-02-19T23:51:50.191Z,6.25
2023-02-19T23:54:17.536Z,6.39
2023-02-19T23:56:44.573Z,5.41
2023-02-19T23:59:12.388Z,4.37
